ADDS METAR Data INFO
IDs: Format: Raw Decoded Include TAF

Data at: 0635 UTC 15 Dec 2017

KLXY 150615Z AUTO 35009KT 310V010 10SM CLR 08/M03 A3020 RMK AO2 T00751035
KLXY 150555Z AUTO 35010G17KT 310V020 10SM CLR 08/M03 A3019 RMK AO2 T00801035 10129 20080 401810057
KLXY 150535Z AUTO 34008G15KT 300V030 10SM CLR 08/M03 A3019 RMK AO2 T00811035
KLXY 150515Z AUTO 34009G16KT 310V020 10SM CLR 08/M03 A3018 RMK AO2 T00821034
KLXY 150455Z AUTO 35010G16KT 310V040 10SM CLR 08/M03 A3018 RMK AO2 T00841032
KLXY 150435Z AUTO 34011G17KT 300V010 10SM CLR 09/M03 A3018 RMK AO2 T00851030
KLXY 150415Z AUTO 33010G15KT 10SM CLR 09/M03 A3017 RMK AO2 T00851026
KLXY 150355Z AUTO 33008G14KT 310V010 10SM CLR 09/M03 A3017 RMK AO2 T00881026
KLXY 150335Z AUTO 34008KT 300V010 10SM CLR 09/M03 A3016 RMK AO2 T00921026
KLXY 150315Z AUTO 34008KT 300V020 10SM CLR 10/M03 A3016 RMK AO2 T00951026
KLXY 150255Z AUTO 34008KT 290V020 10SM CLR 10/M03 A3015 RMK AO2 T00981026
KLXY 150235Z AUTO 35007G15KT 290V010 10SM CLR 10/M03 A3014 RMK AO2 T01031026
KLXY 150215Z AUTO 35008G15KT 300V020 10SM CLR 11/M03 A3013 RMK AO2 T01091027
KLXY 150155Z AUTO 35009G18KT 310V010 10SM CLR 11/M03 A3012 RMK AO2 T01121030
KLXY 150135Z AUTO 36012G18KT 10SM CLR 12/M03 A3011 RMK AO2 T01171032
KLXY 150115Z AUTO 35009G16KT 10SM CLR 12/M03 A3009 RMK AO2 T01211030
KLXY 150055Z AUTO 35010G15KT 10SM CLR 12/M03 A3009 RMK AO2 T01221026
KLXY 150035Z AUTO 35009KT 10SM CLR 13/M02 A3007 RMK AO2 T01251025
KLXY 150015Z AUTO 34008KT 310V010 10SM CLR 13/M02 A3006 RMK AO2 T01261023
KLXY 142355Z AUTO 34010KT 10SM CLR 13/M02 A3006 RMK AO2 T01301025 10181 20130
KLXY 142335Z AUTO 35009KT 10SM CLR 14/M02 A3004 RMK AO2 T01361024
KLXY 142315Z AUTO 35009G14KT 10SM CLR 14/M02 A3003 RMK AO2 T01441020
KLXY 142255Z AUTO 36005KT 10SM CLR 15/M02 A3002 RMK AO2 T01471017
KLXY 142235Z AUTO 01006KT 10SM CLR 16/M02 A3000 RMK AO2 T01551020
KLXY 142215Z AUTO 02006KT 10SM CLR 16/M02 A3000 RMK AO2 T01581023
KLXY 142155Z AUTO 01006KT 10SM CLR 16/M02 A2999 RMK AO2 T01601023
KLXY 142135Z AUTO 02007KT 10SM CLR 17/M02 A2999 RMK AO2 T01651025
KLXY 142115Z AUTO 02007KT 10SM CLR 17/M02 A2999 RMK AO2 T01681023
KLXY 142055Z AUTO 03008KT 10SM CLR 17/M03 A2998 RMK AO2 T01691027
KLXY 142035Z AUTO 02007KT 10SM CLR 17/M02 A2997 RMK AO2 T01691025
KLXY 142015Z AUTO 01008G19KT 10SM CLR 17/M03 A2997 RMK AO2 T01671026
KLXY 141955Z AUTO 36010G17KT 340V040 10SM CLR 18/M02 A2997 RMK AO2 T01761022
KLXY 141935Z AUTO 03010KT 18/M02 A2997 RMK AO2 T01761018 PWINO
KLXY 141915Z AUTO 03008G18KT 350V060 10SM CLR 17/M01 A2998 RMK AO2 T01711013
KLXY 141855Z AUTO 02007G18KT 10SM CLR 16/M01 A2998 RMK AO2 T01611015
KLXY 141835Z AUTO 01010G16KT 10SM CLR 16/M01 A2999 RMK AO2 T01581009
KLXY 141815Z AUTO 36009G15KT 10SM CLR 16/M01 A3000 RMK AO2 T01551007
KLXY 141755Z AUTO 03007G15KT 10SM CLR 15/00 A3002 RMK AO2 T01491002 10149 20057
KLXY 141735Z AUTO 01008G18KT 300V050 10SM CLR 14/00 A3002 RMK AO2 T01431001
KLXY 141715Z AUTO 01012G19KT 10SM CLR 14/00 A3002 RMK AO2 T01401003
KLXY 141655Z AUTO 01008G19KT 340V040 10SM CLR 13/00 A3003 RMK AO2 T01330000
KLXY 141635Z AUTO 01008G18KT 10SM CLR 13/00 A3002 RMK AO2 T01290004
KLXY 141615Z AUTO 33008G18KT 300V360 10SM CLR 11/01 A3001 RMK AO2 T01120008
KLXY 141555Z AUTO 33007G16KT 300V010 10SM CLR 11/01 A3000 RMK AO2 T01100010
KLXY 141535Z AUTO 31009KT 10SM CLR 11/01 A3000 RMK AO2 T01100014
KLXY 141515Z AUTO 34005KT 10SM CLR 10/01 A2999 RMK AO2 T00960014
KLXY 141455Z AUTO 33004KT 10SM CLR 08/02 A2997 RMK AO2 T00800016
KLXY 141435Z AUTO 32003KT 10SM CLR 08/02 A2997 RMK AO2 T00760016
KLXY 141415Z AUTO 32006KT 10SM CLR 08/02 A2995 RMK AO2 T00750018
KLXY 141355Z AUTO 31004KT 10SM CLR 08/02 A2995 RMK AO2 T00750019
KLXY 141335Z AUTO 31005KT 10SM CLR 08/02 A2994 RMK AO2 T00750020
KLXY 141315Z AUTO 28005KT 10SM CLR 07/02 A2994 RMK AO2 T00720020
KLXY 141255Z AUTO 00000KT 10SM CLR 06/01 A2993 RMK AO2 T00570013
KLXY 141235Z AUTO 00000KT 10SM CLR 07/02 A2992 RMK AO2 T00730015
KLXY 141215Z AUTO 28003KT 10SM CLR 07/01 A2991 RMK AO2 T00710013
KLXY 141155Z AUTO 00000KT 10SM CLR 08/02 A2991 RMK AO2 T00780015 10092 20076
KLXY 141135Z AUTO 24003KT 10SM CLR 08/02 A2991 RMK AO2 T00780015
KLXY 141115Z AUTO 00000KT 10SM CLR 08/01 A2990 RMK AO2 T00800012
KLXY 141055Z AUTO 23004KT 10SM CLR 08/01 A2990 RMK AO2 T00800014
KLXY 141035Z AUTO 22004KT 10SM SCT110 09/02 A2989 RMK AO2 T00890015
KLXY 141015Z AUTO 21005KT 10SM CLR 09/02 A2989 RMK AO2 T00880015
KLXY 140955Z AUTO 21006KT 10SM CLR 09/02 A2989 RMK AO2 T00900015
KLXY 140935Z AUTO 21006KT 10SM CLR 09/01 A2989 RMK AO2 T00900014
KLXY 140915Z AUTO 21005KT 10SM CLR 09/01 A2990 RMK AO2 T00910012
KLXY 140855Z AUTO 21008KT 10SM CLR 09/01 A2990 RMK AO2 T00900012
KLXY 140835Z AUTO 22008KT 10SM CLR 09/01 A2990 RMK AO2 T00900012
KLXY 140815Z AUTO 21007KT 10SM CLR 09/01 A2990 RMK AO2 T00870012
KLXY 140755Z AUTO 21008KT 10SM CLR 09/01 A2990 RMK AO2 T00880012
KLXY 140735Z AUTO 21009KT 10SM CLR 09/01 A2991 RMK AO2 T00880011
KLXY 140715Z AUTO 22006KT 10SM CLR 09/01 A2991 RMK AO2 T00850010
KLXY 140655Z AUTO 22006KT 10SM CLR 09/01 A2991 RMK AO2 T00870010
KLXY 140635Z AUTO 21009KT 10SM CLR 09/01 A2992 RMK AO2 T00870010
KLXY 140615Z AUTO 21010KT 10SM CLR 09/01 A2992 RMK AO2 T00860009
KLXY 140555Z AUTO 21008KT 10SM CLR 09/01 A2991 RMK AO2 T00850008 10116 20062 401871014
KLXY 140535Z AUTO 21009KT 10SM CLR 08/01 A2992 RMK AO2 T00820006
KLXY 140515Z AUTO 21008KT 10SM CLR 09/01 A2992 RMK AO2 T00850007
KLXY 140455Z AUTO 20008KT 10SM CLR 08/01 A2993 RMK AO2 T00750006
KLXY 140435Z AUTO 20008KT 10SM CLR 07/01 A2992 RMK AO2 T00710007
KLXY 140415Z AUTO 20009KT 10SM CLR 07/01 A2992 RMK AO2 T00680005
KLXY 140355Z AUTO 20011KT 10SM CLR 07/00 A2992 RMK AO2 T00700003
KLXY 140335Z AUTO 20012KT 10SM CLR 07/00 A2992 RMK AO2 T00650001
KLXY 140315Z AUTO 19011KT 10SM CLR 07/00 A2993 RMK AO2 T00670000
KLXY 140255Z AUTO 19011KT 10SM CLR 07/00 A2993 RMK AO2 T00711001
KLXY 140235Z AUTO 16004KT 10SM CLR 08/00 A2994 RMK AO2 T00761002
KLXY 140215Z AUTO 17008G16KT 10SM CLR 08/00 A2994 RMK AO2 T00791002
KLXY 140155Z AUTO 16007KT 10SM CLR 08/00 A2994 RMK AO2 T00801004
KLXY 140135Z AUTO 16005KT 10SM CLR 09/M01 A2994 RMK AO2 T00861006
KLXY 140115Z AUTO 16005KT 10SM CLR 09/M01 A2994 RMK AO2 T00881009
KLXY 140055Z AUTO 16006KT 10SM CLR 09/M01 A2994 RMK AO2 T00901009
KLXY 140035Z AUTO 15007KT 10SM CLR 10/M01 A2994 RMK AO2 T01031009
KLXY 140015Z AUTO 17007KT 10SM CLR 11/M01 A2994 RMK AO2 T01101010
KLXY 132355Z AUTO 18008KT 10SM CLR 12/M01 A2994 RMK AO2 T01181011 10187 20117
KLXY 132335Z AUTO 18009G19KT 10SM CLR 12/M01 A2995 RMK AO2 T01241010
KLXY 132315Z AUTO 19008G15KT 10SM CLR 12/M01 A2995 RMK AO2 T01241011
KLXY 132255Z AUTO 20005KT 10SM CLR 14/M02 A2995 RMK AO2 T01381017
KLXY 132235Z AUTO 20014G20KT 10SM CLR 15/M02 A2995 RMK AO2 T01471021
KLXY 132215Z AUTO 20014G22KT 10SM CLR 16/M03 A2995 RMK AO2 T01561026
KLXY 132155Z AUTO 19009G19KT 10SM CLR 16/M02 A2995 RMK AO2 T01631020
KLXY 132135Z AUTO 19018G25KT 10SM CLR 18/M02 A2995 RMK AO2 T01791020
KLXY 132115Z AUTO 19009G25KT 10SM CLR 18/M02 A2995 RMK AO2 T01801020
KLXY 132055Z AUTO 19014G24KT 10SM CLR 18/M02 A2995 RMK AO2 T01821016
KLXY 132035Z AUTO 18012G23KT 10SM CLR 18/M01 A2996 RMK AO2 T01831014
KLXY 132015Z AUTO 20008G20KT 10SM CLR 18/M01 A2997 RMK AO2 T01821010
KLXY 132000Z AUTO 20010G23KT 10SM CLR 18/M01 A2998 RMK AO2 T01791015
KLXY 131935Z AUTO 19016G22KT 10SM CLR 17/M01 A3000 RMK AO2 T01711013
KLXY 131915Z AUTO 19011G22KT 10SM CLR 17/M01 A3001 RMK AO2 T01681010
KLXY 131855Z AUTO 21015G21KT 10SM CLR 16/M02 A3004 RMK AO2 T01581016